Aeroporto :
LOGIN :

Iscrizione | Disclaimer

   EN    FR    IT 

 










Sommario :    VFR   VFR Marginale   IFR   IFR Intensivo   IFR Molto Intensivo
Visibilità : 
Base nubi : 
>= 8 km
>= 3000ft
5 / 8 km
1000 / 3000 ft
1500m / 5 km
500 / 1000 ft
800 / 1500m
200 / 500 ft
< 800m
< 200 ft
Simboli :   Temporali  Nebbia  Neve Forte  Precipitazioni Forti  Vento > 20 kt
SIGMETs :   Varie  Temporali  Ghiacco  Turbolenza  Onda orograficha  Ceneri Vulcaniche






- Altitudine del aeroporto : 276 ft


LYVR - Vršac International

ULTIMO METAR :
  • 011500Z 17004KT 150V210 9999 BKN040 07/M05 Q1019 NOSIG

METARs OBSOLETI :
  • 011430Z VRB02KT 9999 BKN040 07/M05 Q1019 NOSIG
  • 011400Z 03004KT 9999 BKN040 07/M05 Q1019 NOSIG
  • 011330Z VRB02KT 9999 BKN040 07/M05 Q1020 NOSIG
  • 011300Z 03004KT 360V170 9999 BKN040 08/M04 Q1020 NOSIG
  • 011230Z 04006KT 350V070 9999 BKN040 07/M04 Q1020 NOSIG

TAF TAF LYVR
Valido dal 01 a 12 ore il 02 a 12 ore UTC


011100Z 0112/0212 06005KT 9999 BKN040 TX08/0212Z TNM01/0204Z
TEMPO 0112/0116 08015KT
TEMPO 0203/0207 3000 BR



MetMap, La meteo Aeronautica in un colpo d'occhio ! - Copyright ORBIFLY Dicembre 2007 - Disclaimer

ORBIFLY MET'MAP TEAM :

Programmazione e sviluppo : Alexandra Zaïnal
Concezione : Baudouin d'Aumeries
Aiuto per la programmazione : Marc-Olivier Méhu
Supporto tecnico e logistico : Manuel Goepfert
Aiuto per la traduzione : Arnaldo La Scala

Contatto : metmap@orbifly.com




FONTI E CREDITI :

   NOAA